sensor_id;sensor_type;location;lat;lon;timestamp;pressure;altitude;pressure_sealevel;temperature;humidity
18819;BME280;9537;45.594;9.294;2023-05-19T00:00:11;99874.75;;;16.57;76.19
18819;BME280;9537;45.594;9.294;2023-05-19T00:01:14;99880.09;;;16.57;76.43
18819;BME280;9537;45.594;9.294;2023-05-19T00:02:17;99881.91;;;16.56;76.65
18819;BME280;9537;45.594;9.294;2023-05-19T00:03:21;99881.91;;;16.56;77.03
18819;BME280;9537;45.594;9.294;2023-05-19T00:04:23;99876.41;;;16.51;77.25
18819;BME280;9537;45.594;9.294;2023-05-19T00:05:25;99884.78;;;16.48;76.84
18819;BME280;9537;45.594;9.294;2023-05-19T00:06:29;99881.28;;;16.48;76.70
18819;BME280;9537;45.594;9.294;2023-05-19T00:07:31;99877.19;;;16.45;76.65
18819;BME280;9537;45.594;9.294;2023-05-19T00:08:36;99881.53;;;16.46;76.52
18819;BME280;9537;45.594;9.294;2023-05-19T00:09:38;99878.84;;;16.46;76.98
18819;BME280;9537;45.594;9.294;2023-05-19T00:10:41;99878.84;;;16.46;77.31
18819;BME280;9537;45.594;9.294;2023-05-19T00:11:42;99880.47;;;16.47;77.72
18819;BME280;9537;45.594;9.294;2023-05-19T00:12:44;99875.97;;;16.48;77.95
18819;BME280;9537;45.594;9.294;2023-05-19T00:13:46;99878.63;;;16.48;78.52
18819;BME280;9537;45.594;9.294;2023-05-19T00:14:49;99872.47;;;16.47;78.91
18819;BME280;9537;45.594;9.294;2023-05-19T00:15:53;99869.19;;;16.45;78.76
18819;BME280;9537;45.594;9.294;2023-05-19T00:16:56;99872.72;;;16.46;78.92
18819;BME280;9537;45.594;9.294;2023-05-19T00:17:57;99871.06;;;16.44;78.77
18819;BME280;9537;45.594;9.294;2023-05-19T00:19:01;99870.22;;;16.44;78.77
18819;BME280;9537;45.594;9.294;2023-05-19T00:20:03;99872.09;;;16.43;78.54
18819;BME280;9537;45.594;9.294;2023-05-19T00:21:07;99871.47;;;16.41;78.65
18819;BME280;9537;45.594;9.294;2023-05-19T00:22:08;99864.91;;;16.37;79.12
18819;BME280;9537;45.594;9.294;2023-05-19T00:23:10;99872.69;;;16.39;79.24
18819;BME280;9537;45.594;9.294;2023-05-19T00:24:11;99875.56;;;16.37;79.30
18819;BME280;9537;45.594;9.294;2023-05-19T00:25:13;99871.88;;;16.38;79.40
18819;BME280;9537;45.594;9.294;2023-05-19T00:26:15;99876.38;;;16.38;79.39
18819;BME280;9537;45.594;9.294;2023-05-19T00:27:17;99873.91;;;16.36;79.44
18819;BME280;9537;45.594;9.294;2023-05-19T00:28:18;99877.00;;;16.40;79.17
18819;BME280;9537;45.594;9.294;2023-05-19T00:29:20;99877.59;;;16.42;78.66
18819;BME280;9537;45.594;9.294;2023-05-19T00:30:22;99872.28;;;16.42;78.50
18819;BME280;9537;45.594;9.294;2023-05-19T00:31:25;99870.22;;;16.44;78.59
18819;BME280;9537;45.594;9.294;2023-05-19T00:32:26;99868.78;;;16.41;78.54
18819;BME280;9537;45.594;9.294;2023-05-19T00:33:28;99870.47;;;16.42;78.54
18819;BME280;9537;45.594;9.294;2023-05-19T00:34:30;99870.22;;;16.44;79.24
18819;BME280;9537;45.594;9.294;2023-05-19T00:35:32;99872.28;;;16.42;79.62
18819;BME280;9537;45.594;9.294;2023-05-19T00:36:33;99865.50;;;16.39;79.94
18819;BME280;9537;45.594;9.294;2023-05-19T00:37:35;99869.44;;;16.37;80.52
18819;BME280;9537;45.594;9.294;2023-05-19T00:38:36;99869.44;;;16.37;80.59
18819;BME280;9537;45.594;9.294;2023-05-19T00:39:39;99867.78;;;16.36;81.41
18819;BME280;9537;45.594;9.294;2023-05-19T00:40:41;99869.81;;;16.34;82.06
18819;BME280;9537;45.594;9.294;2023-05-19T00:41:42;99871.47;;;16.35;82.38
18819;BME280;9537;45.594;9.294;2023-05-19T00:42:44;99864.28;;;16.35;82.50
18819;BME280;9537;45.594;9.294;2023-05-19T00:43:45;99870.44;;;16.36;82.40
18819;BME280;9537;45.594;9.294;2023-05-19T00:44:47;99868.81;;;16.35;82.56
18819;BME280;9537;45.594;9.294;2023-05-19T00:45:49;99872.47;;;16.34;82.37
18819;BME280;9537;45.594;9.294;2023-05-19T00:46:53;99871.47;;;16.35;82.55
18819;BME280;9537;45.594;9.294;2023-05-19T00:47:54;99864.69;;;16.32;82.52
18819;BME280;9537;45.594;9.294;2023-05-19T00:48:56;99870.84;;;16.33;82.46
18819;BME280;9537;45.594;9.294;2023-05-19T00:49:58;99864.91;;;16.31;82.58
18819;BME280;9537;45.594;9.294;2023-05-19T00:51:00;99864.91;;;16.31;83.39
18819;BME280;9537;45.594;9.294;2023-05-19T00:52:05;99862.44;;;16.29;83.46
18819;BME280;9537;45.594;9.294;2023-05-19T00:53:07;99861.63;;;16.29;83.74
18819;BME280;9537;45.594;9.294;2023-05-19T00:54:09;99869.00;;;16.27;84.00
18819;BME280;9537;45.594;9.294;2023-05-19T00:55:11;99864.72;;;16.26;83.78
18819;BME280;9537;45.594;9.294;2023-05-19T00:56:14;99865.72;;;16.25;83.60
18819;BME280;9537;45.594;9.294;2023-05-19T00:57:17;99864.50;;;16.20;83.29
18819;BME280;9537;45.594;9.294;2023-05-19T00:58:18;99866.94;;;16.22;83.38
18819;BME280;9537;45.594;9.294;2023-05-19T00:59:20;99862.66;;;16.21;83.69
18819;BME280;9537;45.594;9.294;2023-05-19T01:00:22;99863.28;;;16.23;83.57
18819;BME280;9537;45.594;9.294;2023-05-19T01:01:24;99860.38;;;16.25;83.25
18819;BME280;9537;45.594;9.294;2023-05-19T01:02:27;99866.75;;;16.24;83.13
18819;BME280;9537;45.594;9.294;2023-05-19T01:03:31;99863.06;;;16.25;82.35
18819;BME280;9537;45.594;9.294;2023-05-19T01:04:35;99867.56;;;16.24;82.68
18819;BME280;9537;45.594;9.294;2023-05-19T01:05:39;99869.41;;;16.24;82.74
18819;BME280;9537;45.594;9.294;2023-05-19T01:06:41;99866.75;;;16.24;83.01
18819;BME280;9537;45.594;9.294;2023-05-19T01:07:43;99866.53;;;16.25;83.08
18819;BME280;9537;45.594;9.294;2023-05-19T01:08:46;99867.38;;;16.26;82.89
18819;BME280;9537;45.594;9.294;2023-05-19T01:09:48;99863.88;;;16.25;82.96
18819;BME280;9537;45.594;9.294;2023-05-19T01:10:50;99865.72;;;16.25;83.09
18819;BME280;9537;45.594;9.294;2023-05-19T01:11:52;99865.13;;;16.23;82.86
18819;BME280;9537;45.594;9.294;2023-05-19T01:12:53;99869.59;;;16.22;83.08
18819;BME280;9537;45.594;9.294;2023-05-19T01:13:55;99861.03;;;16.20;83.34
18819;BME280;9537;45.594;9.294;2023-05-19T01:14:56;99868.78;;;16.21;83.64
18819;BME280;9537;45.594;9.294;2023-05-19T01:16:03;99862.47;;;16.23;83.79
18819;BME280;9537;45.594;9.294;2023-05-19T01:17:10;99863.06;;;16.25;83.41
18819;BME280;9537;45.594;9.294;2023-05-19T01:18:25;99862.25;;;16.24;83.61
18819;BME280;9537;45.594;9.294;2023-05-19T01:19:44;99863.88;;;16.18;83.42
18819;BME280;9537;45.594;9.294;2023-05-19T01:20:57;99867.78;;;16.23;82.86
18819;BME280;9537;45.594;9.294;2023-05-19T01:22:21;99867.56;;;16.24;82.85
18819;BME280;9537;45.594;9.294;2023-05-19T01:23:32;99865.72;;;16.25;82.90
18819;BME280;9537;45.594;9.294;2023-05-19T01:25:05;99865.72;;;16.25;82.29
18819;BME280;9537;45.594;9.294;2023-05-19T01:26:18;99867.38;;;16.26;81.79
18819;BME280;9537;45.594;9.294;2023-05-19T01:27:39;99869.63;;;16.29;81.78
18819;BME280;9537;45.594;9.294;2023-05-19T01:28:56;99864.06;;;16.30;81.76
18819;BME280;9537;45.594;9.294;2023-05-19T01:30:26;99868.41;;;16.31;81.42
18819;BME280;9537;45.594;9.294;2023-05-19T01:31:30;99855.06;;;16.31;81.79
18819;BME280;9537;45.594;9.294;2023-05-19T01:32:32;99864.06;;;16.30;81.77
18819;BME280;9537;45.594;9.294;2023-05-19T01:33:34;99860.81;;;16.28;82.15
18819;BME280;9537;45.594;9.294;2023-05-19T01:34:40;99862.44;;;16.29;81.82
18819;BME280;9537;45.594;9.294;2023-05-19T01:35:44;99862.44;;;16.29;81.93
18819;BME280;9537;45.594;9.294;2023-05-19T01:36:47;99858.75;;;16.30;82.04
18819;BME280;9537;45.594;9.294;2023-05-19T01:37:51;99857.75;;;16.31;81.90
18819;BME280;9537;45.594;9.294;2023-05-19T01:38:57;99856.31;;;16.29;82.06
18819;BME280;9537;45.594;9.294;2023-05-19T01:39:59;99864.06;;;16.30;81.94
18819;BME280;9537;45.594;9.294;2023-05-19T01:41:02;99867.56;;;16.31;82.41
18819;BME280;9537;45.594;9.294;2023-05-19T01:42:05;99864.91;;;16.31;82.44
18819;BME280;9537;45.594;9.294;2023-05-19T01:43:07;99863.66;;;16.33;82.62
18819;BME280;9537;45.594;9.294;2023-05-19T01:44:10;99860.41;;;16.31;82.63
18819;BME280;9537;45.594;9.294;2023-05-19T01:45:12;99869.00;;;16.33;82.59
18819;BME280;9537;45.594;9.294;2023-05-19T01:46:16;99867.78;;;16.29;82.62
18819;BME280;9537;45.594;9.294;2023-05-19T01:47:17;99867.97;;;16.28;83.44
18819;BME280;9537;45.594;9.294;2023-05-19T01:48:21;99868.59;;;16.30;84.08
18819;BME280;9537;45.594;9.294;2023-05-19T01:49:22;99864.31;;;16.29;83.93
18819;BME280;9537;45.594;9.294;2023-05-19T01:50:25;99869.41;;;16.30;83.70
18819;BME280;9537;45.594;9.294;2023-05-19T01:51:26;99858.75;;;16.30;83.52
18819;BME280;9537;45.594;9.294;2023-05-19T01:52:28;99859.78;;;16.29;83.61
18819;BME280;9537;45.594;9.294;2023-05-19T01:53:30;99866.16;;;16.28;83.88
18819;BME280;9537;45.594;9.294;2023-05-19T01:54:32;99867.78;;;16.29;83.79
18819;BME280;9537;45.594;9.294;2023-05-19T01:55:34;99863.69;;;16.27;83.90
18819;BME280;9537;45.594;9.294;2023-05-19T01:56:41;99866.97;;;16.29;84.16
18819;BME280;9537;45.594;9.294;2023-05-19T01:57:52;99865.94;;;16.30;83.93
18819;BME280;9537;45.594;9.294;2023-05-19T01:59:01;99861.63;;;16.29;84.01
18819;BME280;9537;45.594;9.294;2023-05-19T02:00:10;99866.56;;;16.32;83.87
18819;BME280;9537;45.594;9.294;2023-05-19T02:01:28;99864.06;;;16.30;84.08
18819;BME280;9537;45.594;9.294;2023-05-19T02:02:37;99869.81;;;16.27;83.89
18819;BME280;9537;45.594;9.294;2023-05-19T02:03:56;99867.97;;;16.28;83.82
18819;BME280;9537;45.594;9.294;2023-05-19T02:05:08;99862.44;;;16.29;83.92
18819;BME280;9537;45.594;9.294;2023-05-19T02:06:20;99860.81;;;16.28;84.00
18819;BME280;9537;45.594;9.294;2023-05-19T02:07:30;99862.44;;;16.29;83.88
18819;BME280;9537;45.594;9.294;2023-05-19T02:08:42;99857.94;;;16.30;83.75
18819;BME280;9537;45.594;9.294;2023-05-19T02:09:53;99859.56;;;16.31;83.36
18819;BME280;9537;45.594;9.294;2023-05-19T02:11:02;99858.97;;;16.29;83.48
18819;BME280;9537;45.594;9.294;2023-05-19T02:12:10;99852.59;;;16.30;83.63
18819;BME280;9537;45.594;9.294;2023-05-19T02:13:12;99856.31;;;16.29;83.60
18819;BME280;9537;45.594;9.294;2023-05-19T02:14:19;99856.31;;;16.29;83.83
18819;BME280;9537;45.594;9.294;2023-05-19T02:15:24;99855.50;;;16.28;83.73
18819;BME280;9537;45.594;9.294;2023-05-19T02:16:29;99855.69;;;16.27;83.71
18819;BME280;9537;45.594;9.294;2023-05-19T02:17:34;99850.75;;;16.24;83.86
18819;BME280;9537;45.594;9.294;2023-05-19T02:18:36;99850.53;;;16.25;83.79
18819;BME280;9537;45.594;9.294;2023-05-19T02:19:39;99851.38;;;16.26;83.71
18819;BME280;9537;45.594;9.294;2023-05-19T02:20:41;99853.00;;;16.27;83.51
18819;BME280;9537;45.594;9.294;2023-05-19T02:21:42;99855.28;;;16.30;83.13
18819;BME280;9537;45.594;9.294;2023-05-19T02:22:44;99852.19;;;16.33;82.96
18819;BME280;9537;45.594;9.294;2023-05-19T02:23:46;99847.28;;;16.30;82.79
18819;BME280;9537;45.594;9.294;2023-05-19T02:24:48;99857.94;;;16.30;82.84
18819;BME280;9537;45.594;9.294;2023-05-19T02:25:51;99855.28;;;16.30;83.08
18819;BME280;9537;45.594;9.294;2023-05-19T02:26:53;99851.78;;;16.29;82.87
18819;BME280;9537;45.594;9.294;2023-05-19T02:27:57;99852.81;;;16.28;82.88
18819;BME280;9537;45.594;9.294;2023-05-19T02:28:59;99850.16;;;16.28;82.92
18819;BME280;9537;45.594;9.294;2023-05-19T02:30:00;99856.91;;;16.31;82.67
18819;BME280;9537;45.594;9.294;2023-05-19T02:31:02;99853.41;;;16.30;82.82
18819;BME280;9537;45.594;9.294;2023-05-19T02:32:06;99850.16;;;16.28;82.93
18819;BME280;9537;45.594;9.294;2023-05-19T02:33:10;99854.47;;;16.29;82.84
18819;BME280;9537;45.594;9.294;2023-05-19T02:34:11;99847.69;;;16.27;82.94
18819;BME280;9537;45.594;9.294;2023-05-19T02:35:13;99848.31;;;16.29;82.71
18819;BME280;9537;45.594;9.294;2023-05-19T02:36:14;99850.97;;;16.29;82.64
18819;BME280;9537;45.594;9.294;2023-05-19T02:37:16;99854.22;;;16.31;82.45
18819;BME280;9537;45.594;9.294;2023-05-19T02:38:17;99853.22;;;16.32;82.36
18819;BME280;9537;45.594;9.294;2023-05-19T02:39:19;99848.91;;;16.31;82.55
18819;BME280;9537;45.594;9.294;2023-05-19T02:40:21;99855.88;;;16.32;82.42
18819;BME280;9537;45.594;9.294;2023-05-19T02:41:23;99852.59;;;16.30;82.68
18819;BME280;9537;45.594;9.294;2023-05-19T02:42:24;99857.75;;;16.31;82.74
18819;BME280;9537;45.594;9.294;2023-05-19T02:43:26;99853.22;;;16.32;82.55
18819;BME280;9537;45.594;9.294;2023-05-19T02:44:27;99854.84;;;16.33;82.56
18819;BME280;9537;45.594;9.294;2023-05-19T02:45:29;99854.47;;;16.29;82.80
18819;BME280;9537;45.594;9.294;2023-05-19T02:46:30;99850.34;;;16.27;83.12
18819;BME280;9537;45.594;9.294;2023-05-19T02:47:33;99852.81;;;16.28;83.18
18819;BME280;9537;45.594;9.294;2023-05-19T02:48:34;99853.00;;;16.27;83.06
18819;BME280;9537;45.594;9.294;2023-05-19T02:49:37;99863.69;;;16.27;82.96
18819;BME280;9537;45.594;9.294;2023-05-19T02:50:38;99851.97;;;16.28;83.02
18819;BME280;9537;45.594;9.294;2023-05-19T02:51:40;99852.38;;;16.25;83.15
18819;BME280;9537;45.594;9.294;2023-05-19T02:52:41;99857.13;;;16.23;83.26
18819;BME280;9537;45.594;9.294;2023-05-19T02:53:43;99858.75;;;16.24;83.12
18819;BME280;9537;45.594;9.294;2023-05-19T02:54:44;99854.47;;;16.23;83.38
18819;BME280;9537;45.594;9.294;2023-05-19T02:55:46;99852.38;;;16.25;82.89
18819;BME280;9537;45.594;9.294;2023-05-19T02:56:47;99855.47;;;16.21;83.04
18819;BME280;9537;45.594;9.294;2023-05-19T02:57:49;99855.88;;;16.18;83.33
18819;BME280;9537;45.594;9.294;2023-05-19T02:58:50;99852.19;;;16.19;83.04
18819;BME280;9537;45.594;9.294;2023-05-19T02:59:52;99852.00;;;16.21;83.08
18819;BME280;9537;45.594;9.294;2023-05-19T03:00:53;99853.84;;;16.20;83.09
18819;BME280;9537;45.594;9.294;2023-05-19T03:01:58;99846.66;;;16.21;83.27
18819;BME280;9537;45.594;9.294;2023-05-19T03:03:02;99852.81;;;16.21;83.18
18819;BME280;9537;45.594;9.294;2023-05-19T03:04:04;99857.50;;;16.19;83.31
18819;BME280;9537;45.594;9.294;2023-05-19T03:05:06;99856.69;;;16.19;83.32
18819;BME280;9537;45.594;9.294;2023-05-19T03:06:09;99849.94;;;16.16;83.31
18819;BME280;9537;45.594;9.294;2023-05-19T03:07:10;99847.47;;;16.21;83.11
18819;BME280;9537;45.594;9.294;2023-05-19T03:08:13;99851.19;;;16.20;83.15
18819;BME280;9537;45.594;9.294;2023-05-19T03:09:14;99857.50;;;16.19;83.43
18819;BME280;9537;45.594;9.294;2023-05-19T03:10:16;99849.50;;;16.19;83.48
18819;BME280;9537;45.594;9.294;2023-05-19T03:11:17;99850.13;;;16.21;83.46
18819;BME280;9537;45.594;9.294;2023-05-19T03:12:19;99852.19;;;16.19;83.66
18819;BME280;9537;45.594;9.294;2023-05-19T03:13:21;99849.50;;;16.19;83.77
18819;BME280;9537;45.594;9.294;2023-05-19T03:14:23;99849.50;;;16.19;83.85
18819;BME280;9537;45.594;9.294;2023-05-19T03:15:24;99848.69;;;16.19;84.07
18819;BME280;9537;45.594;9.294;2023-05-19T03:16:26;99849.72;;;16.18;84.00
18819;BME280;9537;45.594;9.294;2023-05-19T03:17:27;99845.44;;;16.17;84.16
18819;BME280;9537;45.594;9.294;2023-05-19T03:18:34;99837.22;;;16.18;84.31
18819;BME280;9537;45.594;9.294;2023-05-19T03:19:35;99843.59;;;16.17;84.47
18819;BME280;9537;45.594;9.294;2023-05-19T03:20:37;99847.25;;;16.16;84.59
18819;BME280;9537;45.594;9.294;2023-05-19T03:21:39;99849.72;;;16.18;84.57
18819;BME280;9537;45.594;9.294;2023-05-19T03:22:41;99844.41;;;16.18;84.80
18819;BME280;9537;45.594;9.294;2023-05-19T03:23:42;99844.59;;;16.16;84.90
18819;BME280;9537;45.594;9.294;2023-05-19T03:24:44;99845.63;;;16.15;85.00
18819;BME280;9537;45.594;9.294;2023-05-19T03:25:45;99844.81;;;16.15;85.13
18819;BME280;9537;45.594;9.294;2023-05-19T03:26:47;99850.97;;;16.15;85.32
18819;BME280;9537;45.594;9.294;2023-05-19T03:27:48;99845.84;;;16.14;85.41
18819;BME280;9537;45.594;9.294;2023-05-19T03:28:50;99843.19;;;16.14;85.18
18819;BME280;9537;45.594;9.294;2023-05-19T03:29:52;99842.16;;;16.15;85.10
18819;BME280;9537;45.594;9.294;2023-05-19T03:30:54;99845.63;;;16.15;84.83
18819;BME280;9537;45.594;9.294;2023-05-19T03:31:55;99843.38;;;16.12;84.43
18819;BME280;9537;45.594;9.294;2023-05-19T03:32:58;99843.38;;;16.12;84.40
18819;BME280;9537;45.594;9.294;2023-05-19T03:34:02;99852.19;;;16.13;83.81
18819;BME280;9537;45.594;9.294;2023-05-19T03:35:04;99847.66;;;16.13;83.76
18819;BME280;9537;45.594;9.294;2023-05-19T03:36:06;99844.41;;;16.11;83.44
18819;BME280;9537;45.594;9.294;2023-05-19T03:37:08;99849.53;;;16.13;83.30
18819;BME280;9537;45.594;9.294;2023-05-19T03:38:12;99850.56;;;16.12;83.42
18819;BME280;9537;45.594;9.294;2023-05-19T03:39:13;99846.22;;;16.11;83.47
18819;BME280;9537;45.594;9.294;2023-05-19T03:40:16;99850.56;;;16.12;83.04
18819;BME280;9537;45.594;9.294;2023-05-19T03:41:18;99854.22;;;16.11;83.16
18819;BME280;9537;45.594;9.294;2023-05-19T03:42:20;99855.06;;;16.11;83.45
18819;BME280;9537;45.594;9.294;2023-05-19T03:43:21;99855.47;;;16.08;83.68
18819;BME280;9537;45.594;9.294;2023-05-19T03:44:23;99855.25;;;16.10;83.66
18819;BME280;9537;45.594;9.294;2023-05-19T03:45:24;99853.41;;;16.10;83.71
18819;BME280;9537;45.594;9.294;2023-05-19T03:46:27;99856.06;;;16.10;83.73
18819;BME280;9537;45.594;9.294;2023-05-19T03:47:28;99856.47;;;16.07;84.12
18819;BME280;9537;45.594;9.294;2023-05-19T03:48:31;99865.09;;;16.09;84.02
18819;BME280;9537;45.594;9.294;2023-05-19T03:49:33;99861.63;;;16.09;83.92
18819;BME280;9537;45.594;9.294;2023-05-19T03:50:35;99858.97;;;16.09;83.73
18819;BME280;9537;45.594;9.294;2023-05-19T03:51:37;99861.63;;;16.09;84.06
18819;BME280;9537;45.594;9.294;2023-05-19T03:52:39;99871.47;;;16.08;84.16
18819;BME280;9537;45.594;9.294;2023-05-19T03:53:46;99864.28;;;16.09;84.36
18819;BME280;9537;45.594;9.294;2023-05-19T03:54:48;99861.63;;;16.09;84.43
18819;BME280;9537;45.594;9.294;2023-05-19T03:55:50;99862.44;;;16.09;84.37
18819;BME280;9537;45.594;9.294;2023-05-19T03:56:51;99864.06;;;16.10;84.37
18819;BME280;9537;45.594;9.294;2023-05-19T03:57:54;99863.25;;;16.10;84.57
18819;BME280;9537;45.594;9.294;2023-05-19T03:58:55;99864.06;;;16.10;84.66
18819;BME280;9537;45.594;9.294;2023-05-19T03:59:58;99871.06;;;16.11;84.58
18819;BME280;9537;45.594;9.294;2023-05-19T04:00:58;99876.78;;;16.08;84.66
18819;BME280;9537;45.594;9.294;2023-05-19T04:02:01;99868.19;;;16.06;84.78
18819;BME280;9537;45.594;9.294;2023-05-19T04:03:02;99866.13;;;16.08;84.79
18819;BME280;9537;45.594;9.294;2023-05-19T04:04:04;99867.53;;;16.11;84.51
18819;BME280;9537;45.594;9.294;2023-05-19T04:05:07;99862.03;;;16.12;84.42
18819;BME280;9537;45.594;9.294;2023-05-19T04:06:09;99867.34;;;16.12;84.22
18819;BME280;9537;45.594;9.294;2023-05-19T04:07:10;99878.00;;;16.12;84.55
18819;BME280;9537;45.594;9.294;2023-05-19T04:08:12;99878.84;;;16.13;84.07
18819;BME280;9537;45.594;9.294;2023-05-19T04:09:14;99871.66;;;16.13;83.99
18819;BME280;9537;45.594;9.294;2023-05-19T04:10:16;99869.00;;;16.13;83.80
18819;BME280;9537;45.594;9.294;2023-05-19T04:11:18;99872.88;;;16.11;84.02
18819;BME280;9537;45.594;9.294;2023-05-19T04:12:21;99879.66;;;16.13;83.75
18819;BME280;9537;45.594;9.294;2023-05-19T04:13:22;99875.16;;;16.14;83.80
18819;BME280;9537;45.594;9.294;2023-05-19T04:14:24;99873.50;;;16.13;83.82
18819;BME280;9537;45.594;9.294;2023-05-19T04:15:25;99871.88;;;16.12;83.78
18819;BME280;9537;45.594;9.294;2023-05-19T04:16:27;99878.22;;;16.11;84.04
18819;BME280;9537;45.594;9.294;2023-05-19T04:17:28;99875.53;;;16.11;83.91
18819;BME280;9537;45.594;9.294;2023-05-19T04:18:30;99875.34;;;16.12;84.04
18819;BME280;9537;45.594;9.294;2023-05-19T04:19:32;99870.22;;;16.11;84.10
18819;BME280;9537;45.594;9.294;2023-05-19T04:20:42;99877.19;;;16.12;84.35
18819;BME280;9537;45.594;9.294;2023-05-19T04:21:43;99873.09;;;16.09;84.70
18819;BME280;9537;45.594;9.294;2023-05-19T04:22:46;99878.44;;;16.09;84.67
18819;BME280;9537;45.594;9.294;2023-05-19T04:23:47;99871.47;;;16.08;84.94
18819;BME280;9537;45.594;9.294;2023-05-19T04:24:49;99871.66;;;16.07;85.11
18819;BME280;9537;45.594;9.294;2023-05-19T04:25:51;99877.81;;;16.07;85.03
18819;BME280;9537;45.594;9.294;2023-05-19T04:26:54;99875.13;;;16.07;85.03
18819;BME280;9537;45.594;9.294;2023-05-19T04:27:55;99871.84;;;16.05;84.95
18819;BME280;9537;45.594;9.294;2023-05-19T04:28:58;99876.16;;;16.06;85.09
18819;BME280;9537;45.594;9.294;2023-05-19T04:29:59;99878.84;;;16.06;85.37
18819;BME280;9537;45.594;9.294;2023-05-19T04:31:01;99876.16;;;16.06;85.46
18819;BME280;9537;45.594;9.294;2023-05-19T04:32:03;99876.16;;;16.06;85.09
18819;BME280;9537;45.594;9.294;2023-05-19T04:33:07;99880.47;;;16.07;84.86
18819;BME280;9537;45.594;9.294;2023-05-19T04:34:09;99878.03;;;16.06;84.71
18819;BME280;9537;45.594;9.294;2023-05-19T04:35:11;99878.22;;;16.04;84.90
18819;BME280;9537;45.594;9.294;2023-05-19T04:36:14;99874.72;;;16.04;84.74
18819;BME280;9537;45.594;9.294;2023-05-19T04:37:21;99877.59;;;16.02;84.89
18819;BME280;9537;45.594;9.294;2023-05-19T04:38:22;99875.13;;;16.01;84.92
18819;BME280;9537;45.594;9.294;2023-05-19T04:39:24;99881.91;;;16.03;84.80
18819;BME280;9537;45.594;9.294;2023-05-19T04:40:25;99882.91;;;16.02;85.07
18819;BME280;9537;45.594;9.294;2023-05-19T04:41:27;99886.41;;;16.03;85.22
18819;BME280;9537;45.594;9.294;2023-05-19T04:42:28;99879.44;;;16.02;85.43
18819;BME280;9537;45.594;9.294;2023-05-19T04:43:32;99882.31;;;16.00;85.09
18819;BME280;9537;45.594;9.294;2023-05-19T04:44:33;99888.44;;;16.01;85.42
18819;BME280;9537;45.594;9.294;2023-05-19T04:45:36;99884.97;;;16.00;85.21
18819;BME280;9537;45.594;9.294;2023-05-19T04:46:37;99889.09;;;16.03;84.94
18819;BME280;9537;45.594;9.294;2023-05-19T04:47:39;99882.91;;;16.02;84.99
18819;BME280;9537;45.594;9.294;2023-05-19T04:48:41;99885.56;;;16.02;85.02
18819;BME280;9537;45.594;9.294;2023-05-19T04:49:43;99883.94;;;16.01;83.66
18819;BME280;9537;45.594;9.294;2023-05-19T04:50:47;99882.31;;;16.00;83.21
18819;BME280;9537;45.594;9.294;2023-05-19T04:51:49;99892.16;;;15.99;82.46
18819;BME280;9537;45.594;9.294;2023-05-19T04:52:52;99890.91;;;16.02;81.88
18819;BME280;9537;45.594;9.294;2023-05-19T04:53:53;99886.41;;;16.03;81.95
18819;BME280;9537;45.594;9.294;2023-05-19T04:54:56;99890.91;;;16.02;81.81
18819;BME280;9537;45.594;9.294;2023-05-19T04:55:57;99895.22;;;16.03;81.64
18819;BME280;9537;45.594;9.294;2023-05-19T04:57:00;99894.19;;;16.04;81.25
18819;BME280;9537;45.594;9.294;2023-05-19T04:58:01;99895.81;;;16.05;80.95
18819;BME280;9537;45.594;9.294;2023-05-19T04:59:04;99890.31;;;16.07;80.72
18819;BME280;9537;45.594;9.294;2023-05-19T05:00:06;99898.94;;;16.09;80.56
18819;BME280;9537;45.594;9.294;2023-05-19T05:01:11;99892.78;;;16.08;80.18
18819;BME280;9537;45.594;9.294;2023-05-19T05:02:13;99887.44;;;16.08;79.93
18819;BME280;9537;45.594;9.294;2023-05-19T05:03:15;99899.75;;;16.09;80.18
18819;BME280;9537;45.594;9.294;2023-05-19T05:04:18;99892.38;;;16.11;80.64
18819;BME280;9537;45.594;9.294;2023-05-19T05:05:21;99894.00;;;16.12;81.08
18819;BME280;9537;45.594;9.294;2023-05-19T05:06:22;99906.28;;;16.13;81.14
18819;BME280;9537;45.594;9.294;2023-05-19T05:07:26;99898.31;;;16.13;81.59
18819;BME280;9537;45.594;9.294;2023-05-19T05:08:27;99891.97;;;16.14;81.47
18819;BME280;9537;45.594;9.294;2023-05-19T05:09:29;99898.94;;;16.15;81.35
18819;BME280;9537;45.594;9.294;2023-05-19T05:10:30;99899.97;;;16.14;81.45
18819;BME280;9537;45.594;9.294;2023-05-19T05:11:33;99905.88;;;16.16;81.21
18819;BME280;9537;45.594;9.294;2023-05-19T05:12:35;99900.56;;;16.16;81.43
18819;BME280;9537;45.594;9.294;2023-05-19T05:13:38;99905.88;;;16.16;81.24
18819;BME280;9537;45.594;9.294;2023-05-19T05:14:39;99905.88;;;16.16;81.09
18819;BME280;9537;45.594;9.294;2023-05-19T05:15:42;99904.06;;;16.17;80.56
18819;BME280;9537;45.594;9.294;2023-05-19T05:16:43;99907.53;;;16.17;80.42
18819;BME280;9537;45.594;9.294;2023-05-19T05:17:46;99907.53;;;16.17;79.74
18819;BME280;9537;45.594;9.294;2023-05-19T05:18:48;99905.69;;;16.18;79.28
18819;BME280;9537;45.594;9.294;2023-05-19T05:19:50;99908.38;;;16.18;79.25
18819;BME280;9537;45.594;9.294;2023-05-19T05:20:52;99908.38;;;16.18;78.72
18819;BME280;9537;45.594;9.294;2023-05-19T05:21:55;99907.31;;;16.19;78.61
18819;BME280;9537;45.594;9.294;2023-05-19T05:22:58;99905.09;;;16.23;78.53
18819;BME280;9537;45.594;9.294;2023-05-19T05:24:01;99913.09;;;16.23;78.02
18819;BME280;9537;45.594;9.294;2023-05-19T05:25:03;99907.53;;;16.24;77.52
18819;BME280;9537;45.594;9.294;2023-05-19T05:26:09;99908.97;;;16.27;76.34
18819;BME280;9537;45.594;9.294;2023-05-19T05:27:13;99909.78;;;16.27;75.70
18819;BME280;9537;45.594;9.294;2023-05-19T05:28:16;99907.13;;;16.27;75.24
18819;BME280;9537;45.594;9.294;2023-05-19T05:29:18;99908.78;;;16.28;73.21
18819;BME280;9537;45.594;9.294;2023-05-19T05:30:20;99909.59;;;16.29;72.79
18819;BME280;9537;45.594;9.294;2023-05-19T05:31:21;99911.66;;;16.27;72.48
18819;BME280;9537;45.594;9.294;2023-05-19T05:32:23;99910.84;;;16.26;72.67
18819;BME280;9537;45.594;9.294;2023-05-19T05:33:24;99911.66;;;16.27;72.42
18819;BME280;9537;45.594;9.294;2023-05-19T05:34:27;99914.50;;;16.25;72.08
18819;BME280;9537;45.594;9.294;2023-05-19T05:35:28;99917.78;;;16.27;71.94
18819;BME280;9537;45.594;9.294;2023-05-19T05:36:30;99916.16;;;16.26;71.44
18819;BME280;9537;45.594;9.294;2023-05-19T05:37:32;99917.78;;;16.27;71.58
18819;BME280;9537;45.594;9.294;2023-05-19T05:38:36;99921.50;;;16.26;71.62